sensor_id;sensor_type;location;lat;lon;timestamp;P1;durP1;ratioP1;P2;durP2;ratioP2
49101;SDS011;34913;47.520;19.186;2022-10-31T00:02:16;58.05;;;29.10;;
49101;SDS011;34913;47.520;19.186;2022-10-31T00:04:42;65.03;;;31.70;;
49101;SDS011;34913;47.520;19.186;2022-10-31T00:07:07;61.50;;;31.15;;
49101;SDS011;34913;47.520;19.186;2022-10-31T00:09:33;60.05;;;30.35;;
49101;SDS011;34913;47.520;19.186;2022-10-31T00:11:58;66.25;;;32.05;;
49101;SDS011;34913;47.520;19.186;2022-10-31T00:14:24;62.83;;;31.02;;
49101;SDS011;34913;47.520;19.186;2022-10-31T00:16:49;65.10;;;32.03;;
49101;SDS011;34913;47.520;19.186;2022-10-31T00:19:15;67.32;;;33.70;;
49101;SDS011;34913;47.520;19.186;2022-10-31T00:21:40;66.25;;;33.38;;
49101;SDS011;34913;47.520;19.186;2022-10-31T00:24:06;66.80;;;32.92;;
49101;SDS011;34913;47.520;19.186;2022-10-31T00:26:31;72.57;;;33.60;;
49101;SDS011;34913;47.520;19.186;2022-10-31T00:28:57;65.93;;;32.33;;
49101;SDS011;34913;47.520;19.186;2022-10-31T00:31:23;64.15;;;31.92;;
49101;SDS011;34913;47.520;19.186;2022-10-31T00:33:49;68.10;;;32.97;;
49101;SDS011;34913;47.520;19.186;2022-10-31T00:36:16;64.90;;;32.47;;
49101;SDS011;34913;47.520;19.186;2022-10-31T00:38:43;64.47;;;32.17;;
49101;SDS011;34913;47.520;19.186;2022-10-31T00:41:10;61.15;;;31.63;;
49101;SDS011;34913;47.520;19.186;2022-10-31T00:43:37;64.85;;;31.90;;
49101;SDS011;34913;47.520;19.186;2022-10-31T00:46:03;70.53;;;33.13;;
49101;SDS011;34913;47.520;19.186;2022-10-31T00:48:29;71.72;;;33.90;;
49101;SDS011;34913;47.520;19.186;2022-10-31T00:50:55;67.18;;;33.70;;
49101;SDS011;34913;47.520;19.186;2022-10-31T00:53:21;70.72;;;34.17;;
49101;SDS011;34913;47.520;19.186;2022-10-31T00:55:46;67.35;;;33.38;;
49101;SDS011;34913;47.520;19.186;2022-10-31T00:58:12;71.47;;;33.28;;
49101;SDS011;34913;47.520;19.186;2022-10-31T01:00:38;70.55;;;33.95;;
49101;SDS011;34913;47.520;19.186;2022-10-31T01:03:03;67.70;;;33.33;;
49101;SDS011;34913;47.520;19.186;2022-10-31T01:05:29;68.55;;;34.15;;
49101;SDS011;34913;47.520;19.186;2022-10-31T01:07:54;69.05;;;33.53;;
49101;SDS011;34913;47.520;19.186;2022-10-31T01:10:20;74.93;;;34.45;;
49101;SDS011;34913;47.520;19.186;2022-10-31T01:12:46;66.38;;;32.22;;
49101;SDS011;34913;47.520;19.186;2022-10-31T01:15:14;70.10;;;34.90;;
49101;SDS011;34913;47.520;19.186;2022-10-31T01:17:42;66.88;;;32.92;;
49101;SDS011;34913;47.520;19.186;2022-10-31T01:20:08;62.95;;;30.20;;
49101;SDS011;34913;47.520;19.186;2022-10-31T01:22:35;63.65;;;31.08;;
49101;SDS011;34913;47.520;19.186;2022-10-31T01:25:01;62.58;;;30.27;;
49101;SDS011;34913;47.520;19.186;2022-10-31T01:27:27;66.70;;;31.48;;
49101;SDS011;34913;47.520;19.186;2022-10-31T01:29:52;66.32;;;30.88;;
49101;SDS011;34913;47.520;19.186;2022-10-31T01:32:18;63.10;;;30.95;;
49101;SDS011;34913;47.520;19.186;2022-10-31T01:34:43;63.55;;;31.50;;
49101;SDS011;34913;47.520;19.186;2022-10-31T01:37:09;68.10;;;31.65;;
49101;SDS011;34913;47.520;19.186;2022-10-31T01:39:34;64.80;;;30.50;;
49101;SDS011;34913;47.520;19.186;2022-10-31T01:42:00;66.93;;;31.23;;
49101;SDS011;34913;47.520;19.186;2022-10-31T01:49:33;67.53;;;29.60;;
49101;SDS011;34913;47.520;19.186;2022-10-31T01:52:07;65.60;;;30.83;;
49101;SDS011;34913;47.520;19.186;2022-10-31T01:54:39;62.75;;;27.80;;
49101;SDS011;34913;47.520;19.186;2022-10-31T01:57:08;61.92;;;27.92;;
49101;SDS011;34913;47.520;19.186;2022-10-31T01:59:39;71.43;;;26.90;;
49101;SDS011;34913;47.520;19.186;2022-10-31T02:02:08;60.40;;;26.35;;
49101;SDS011;34913;47.520;19.186;2022-10-31T02:04:34;60.40;;;27.33;;
49101;SDS011;34913;47.520;19.186;2022-10-31T02:07:33;54.70;;;26.48;;
49101;SDS011;34913;47.520;19.186;2022-10-31T02:09:55;57.58;;;26.10;;
49101;SDS011;34913;47.520;19.186;2022-10-31T02:12:22;57.63;;;25.77;;
49101;SDS011;34913;47.520;19.186;2022-10-31T02:14:49;51.13;;;24.58;;
49101;SDS011;34913;47.520;19.186;2022-10-31T02:17:15;49.78;;;23.63;;
49101;SDS011;34913;47.520;19.186;2022-10-31T02:22:30;53.38;;;23.83;;
49101;SDS011;34913;47.520;19.186;2022-10-31T02:33:31;45.38;;;21.48;;
49101;SDS011;34913;47.520;19.186;2022-10-31T02:36:16;41.28;;;20.90;;
49101;SDS011;34913;47.520;19.186;2022-10-31T02:39:11;42.70;;;21.10;;
49101;SDS011;34913;47.520;19.186;2022-10-31T02:41:48;44.33;;;20.15;;
49101;SDS011;34913;47.520;19.186;2022-10-31T02:44:25;46.47;;;21.48;;
49101;SDS011;34913;47.520;19.186;2022-10-31T02:47:17;42.85;;;20.77;;
49101;SDS011;34913;47.520;19.186;2022-10-31T02:52:20;43.97;;;21.45;;
49101;SDS011;34913;47.520;19.186;2022-10-31T02:54:48;42.50;;;20.95;;
49101;SDS011;34913;47.520;19.186;2022-10-31T02:57:14;44.00;;;20.17;;
49101;SDS011;34913;47.520;19.186;2022-10-31T02:59:50;40.35;;;20.13;;
49101;SDS011;34913;47.520;19.186;2022-10-31T03:10:40;44.58;;;20.58;;
49101;SDS011;34913;47.520;19.186;2022-10-31T03:16:08;38.78;;;20.13;;
49101;SDS011;34913;47.520;19.186;2022-10-31T03:18:40;40.58;;;20.38;;
49101;SDS011;34913;47.520;19.186;2022-10-31T03:21:22;41.08;;;19.90;;
49101;SDS011;34913;47.520;19.186;2022-10-31T03:24:02;39.08;;;19.90;;
49101;SDS011;34913;47.520;19.186;2022-10-31T03:26:30;39.05;;;19.83;;
49101;SDS011;34913;47.520;19.186;2022-10-31T03:29:00;36.65;;;19.95;;
49101;SDS011;34913;47.520;19.186;2022-10-31T03:31:47;41.90;;;20.58;;
49101;SDS011;34913;47.520;19.186;2022-10-31T03:34:18;40.88;;;19.75;;
49101;SDS011;34913;47.520;19.186;2022-10-31T03:36:44;47.30;;;20.85;;
49101;SDS011;34913;47.520;19.186;2022-10-31T03:39:15;41.45;;;20.33;;
49101;SDS011;34913;47.520;19.186;2022-10-31T03:41:46;40.13;;;19.98;;
49101;SDS011;34913;47.520;19.186;2022-10-31T03:44:19;42.08;;;19.85;;
49101;SDS011;34913;47.520;19.186;2022-10-31T03:46:48;42.63;;;20.20;;
49101;SDS011;34913;47.520;19.186;2022-10-31T03:49:14;39.92;;;19.65;;
49101;SDS011;34913;47.520;19.186;2022-10-31T03:56:48;32.70;;;18.38;;
49101;SDS011;34913;47.520;19.186;2022-10-31T03:59:26;33.60;;;18.20;;
49101;SDS011;34913;47.520;19.186;2022-10-31T04:01:57;36.55;;;18.65;;
49101;SDS011;34913;47.520;19.186;2022-10-31T04:04:31;32.30;;;17.10;;
49101;SDS011;34913;47.520;19.186;2022-10-31T04:06:59;29.98;;;16.63;;
49101;SDS011;34913;47.520;19.186;2022-10-31T04:09:27;32.47;;;16.20;;
49101;SDS011;34913;47.520;19.186;2022-10-31T04:11:56;31.90;;;16.75;;
49101;SDS011;34913;47.520;19.186;2022-10-31T04:14:25;32.88;;;17.33;;
49101;SDS011;34913;47.520;19.186;2022-10-31T04:16:53;31.70;;;17.08;;
49101;SDS011;34913;47.520;19.186;2022-10-31T04:19:19;30.00;;;15.43;;
49101;SDS011;34913;47.520;19.186;2022-10-31T04:21:44;28.58;;;16.27;;
49101;SDS011;34913;47.520;19.186;2022-10-31T04:24:10;28.65;;;15.88;;
49101;SDS011;34913;47.520;19.186;2022-10-31T04:26:36;28.13;;;15.23;;
49101;SDS011;34913;47.520;19.186;2022-10-31T04:29:02;28.05;;;14.93;;
49101;SDS011;34913;47.520;19.186;2022-10-31T04:31:28;27.20;;;15.48;;
49101;SDS011;34913;47.520;19.186;2022-10-31T04:33:53;28.63;;;15.07;;
49101;SDS011;34913;47.520;19.186;2022-10-31T04:36:19;26.92;;;14.95;;
49101;SDS011;34913;47.520;19.186;2022-10-31T04:38:45;23.75;;;14.30;;
49101;SDS011;34913;47.520;19.186;2022-10-31T04:41:10;27.45;;;15.48;;
49101;SDS011;34913;47.520;19.186;2022-10-31T04:43:35;27.73;;;14.60;;
49101;SDS011;34913;47.520;19.186;2022-10-31T04:46:01;29.13;;;15.02;;
49101;SDS011;34913;47.520;19.186;2022-10-31T04:48:27;27.33;;;15.55;;
49101;SDS011;34913;47.520;19.186;2022-10-31T04:50:53;27.00;;;14.85;;
49101;SDS011;34913;47.520;19.186;2022-10-31T04:53:23;27.13;;;14.93;;
49101;SDS011;34913;47.520;19.186;2022-10-31T04:55:48;29.30;;;15.23;;
49101;SDS011;34913;47.520;19.186;2022-10-31T04:58:14;25.50;;;14.90;;
49101;SDS011;34913;47.520;19.186;2022-10-31T05:00:39;27.42;;;15.75;;
49101;SDS011;34913;47.520;19.186;2022-10-31T05:03:05;29.13;;;15.60;;
49101;SDS011;34913;47.520;19.186;2022-10-31T05:05:31;27.27;;;14.95;;
49101;SDS011;34913;47.520;19.186;2022-10-31T05:07:56;28.63;;;15.07;;
49101;SDS011;34913;47.520;19.186;2022-10-31T05:10:26;26.98;;;14.93;;
49101;SDS011;34913;47.520;19.186;2022-10-31T05:12:54;28.55;;;14.32;;
49101;SDS011;34913;47.520;19.186;2022-10-31T05:15:22;27.85;;;14.40;;
49101;SDS011;34913;47.520;19.186;2022-10-31T05:17:49;26.58;;;14.82;;
49101;SDS011;34913;47.520;19.186;2022-10-31T05:20:16;26.10;;;14.57;;
49101;SDS011;34913;47.520;19.186;2022-10-31T05:22:43;24.35;;;13.98;;
49101;SDS011;34913;47.520;19.186;2022-10-31T05:25:10;26.65;;;14.30;;
49101;SDS011;34913;47.520;19.186;2022-10-31T05:27:43;25.08;;;13.43;;
49101;SDS011;34913;47.520;19.186;2022-10-31T05:30:11;23.05;;;12.98;;
49101;SDS011;34913;47.520;19.186;2022-10-31T05:32:42;23.20;;;13.18;;
49101;SDS011;34913;47.520;19.186;2022-10-31T05:35:10;23.48;;;13.32;;
49101;SDS011;34913;47.520;19.186;2022-10-31T05:37:38;27.70;;;14.07;;
49101;SDS011;34913;47.520;19.186;2022-10-31T05:40:05;25.70;;;13.98;;
49101;SDS011;34913;47.520;19.186;2022-10-31T05:42:32;27.33;;;14.48;;
49101;SDS011;34913;47.520;19.186;2022-10-31T05:44:58;28.08;;;14.35;;
49101;SDS011;34913;47.520;19.186;2022-10-31T05:47:24;26.13;;;14.93;;
49101;SDS011;34913;47.520;19.186;2022-10-31T05:49:50;25.42;;;14.18;;
49101;SDS011;34913;47.520;19.186;2022-10-31T05:52:16;26.23;;;14.23;;
49101;SDS011;34913;47.520;19.186;2022-10-31T05:54:42;29.95;;;15.48;;
49101;SDS011;34913;47.520;19.186;2022-10-31T05:57:07;26.00;;;14.70;;
49101;SDS011;34913;47.520;19.186;2022-10-31T05:59:33;26.88;;;14.15;;
49101;SDS011;34913;47.520;19.186;2022-10-31T06:01:58;28.05;;;14.77;;
49101;SDS011;34913;47.520;19.186;2022-10-31T06:04:24;30.15;;;15.70;;
49101;SDS011;34913;47.520;19.186;2022-10-31T06:06:49;27.50;;;14.60;;
49101;SDS011;34913;47.520;19.186;2022-10-31T06:09:15;29.33;;;15.38;;
49101;SDS011;34913;47.520;19.186;2022-10-31T06:11:40;31.05;;;15.20;;
49101;SDS011;34913;47.520;19.186;2022-10-31T06:14:06;30.60;;;14.95;;
49101;SDS011;34913;47.520;19.186;2022-10-31T06:16:31;30.45;;;15.52;;
49101;SDS011;34913;47.520;19.186;2022-10-31T06:18:57;25.90;;;14.13;;
49101;SDS011;34913;47.520;19.186;2022-10-31T06:21:22;27.70;;;14.07;;
49101;SDS011;34913;47.520;19.186;2022-10-31T06:23:48;29.90;;;14.77;;
49101;SDS011;34913;47.520;19.186;2022-10-31T06:26:14;23.33;;;13.60;;
49101;SDS011;34913;47.520;19.186;2022-10-31T06:28:39;22.50;;;13.20;;
49101;SDS011;34913;47.520;19.186;2022-10-31T06:31:05;27.27;;;14.52;;
49101;SDS011;34913;47.520;19.186;2022-10-31T06:33:30;20.67;;;12.93;;
49101;SDS011;34913;47.520;19.186;2022-10-31T06:35:56;24.23;;;13.45;;
49101;SDS011;34913;47.520;19.186;2022-10-31T06:38:22;23.38;;;12.88;;
49101;SDS011;34913;47.520;19.186;2022-10-31T06:40:47;24.60;;;13.38;;
49101;SDS011;34913;47.520;19.186;2022-10-31T06:43:12;25.25;;;13.85;;
49101;SDS011;34913;47.520;19.186;2022-10-31T06:45:39;26.77;;;14.10;;
49101;SDS011;34913;47.520;19.186;2022-10-31T06:48:05;28.45;;;14.90;;
49101;SDS011;34913;47.520;19.186;2022-10-31T06:50:31;25.85;;;14.45;;
49101;SDS011;34913;47.520;19.186;2022-10-31T06:52:57;26.88;;;15.38;;
49101;SDS011;34913;47.520;19.186;2022-10-31T06:55:23;32.83;;;16.67;;
49101;SDS011;34913;47.520;19.186;2022-10-31T06:57:57;27.27;;;14.13;;
49101;SDS011;34913;47.520;19.186;2022-10-31T07:00:24;31.45;;;14.73;;
49101;SDS011;34913;47.520;19.186;2022-10-31T07:02:58;30.17;;;15.63;;
49101;SDS011;34913;47.520;19.186;2022-10-31T07:05:26;27.77;;;15.15;;
49101;SDS011;34913;47.520;19.186;2022-10-31T07:07:53;30.35;;;15.18;;
49101;SDS011;34913;47.520;19.186;2022-10-31T07:10:23;28.85;;;14.88;;
49101;SDS011;34913;47.520;19.186;2022-10-31T07:12:54;31.38;;;15.52;;
49101;SDS011;34913;47.520;19.186;2022-10-31T07:15:21;26.73;;;14.40;;
49101;SDS011;34913;47.520;19.186;2022-10-31T07:17:47;26.35;;;15.10;;
49101;SDS011;34913;47.520;19.186;2022-10-31T07:20:12;28.35;;;14.25;;
49101;SDS011;34913;47.520;19.186;2022-10-31T07:22:38;29.00;;;15.50;;
49101;SDS011;34913;47.520;19.186;2022-10-31T07:25:04;27.63;;;14.95;;
49101;SDS011;34913;47.520;19.186;2022-10-31T07:27:41;28.45;;;15.05;;
49101;SDS011;34913;47.520;19.186;2022-10-31T07:30:08;25.35;;;14.23;;
49101;SDS011;34913;47.520;19.186;2022-10-31T07:32:42;24.48;;;13.48;;
49101;SDS011;34913;47.520;19.186;2022-10-31T07:35:09;21.52;;;12.40;;
49101;SDS011;34913;47.520;19.186;2022-10-31T07:37:36;22.40;;;12.80;;
49101;SDS011;34913;47.520;19.186;2022-10-31T07:40:05;23.55;;;13.75;;
49101;SDS011;34913;47.520;19.186;2022-10-31T07:42:38;25.92;;;14.57;;
49101;SDS011;34913;47.520;19.186;2022-10-31T07:45:05;25.92;;;14.98;;
49101;SDS011;34913;47.520;19.186;2022-10-31T07:50:09;26.38;;;14.70;;
49101;SDS011;34913;47.520;19.186;2022-10-31T07:52:36;27.98;;;15.80;;
49101;SDS011;34913;47.520;19.186;2022-10-31T07:55:01;27.02;;;15.23;;
49101;SDS011;34913;47.520;19.186;2022-10-31T07:57:27;28.73;;;15.25;;
49101;SDS011;34913;47.520;19.186;2022-10-31T07:59:53;28.05;;;15.55;;
49101;SDS011;34913;47.520;19.186;2022-10-31T08:02:19;31.33;;;16.45;;
49101;SDS011;34913;47.520;19.186;2022-10-31T08:04:44;28.38;;;15.25;;
49101;SDS011;34913;47.520;19.186;2022-10-31T08:07:10;31.33;;;16.23;;
49101;SDS011;34913;47.520;19.186;2022-10-31T08:09:35;29.05;;;15.23;;
49101;SDS011;34913;47.520;19.186;2022-10-31T08:12:00;28.63;;;15.45;;
49101;SDS011;34913;47.520;19.186;2022-10-31T08:14:26;31.63;;;16.08;;
49101;SDS011;34913;47.520;19.186;2022-10-31T08:16:52;32.80;;;16.10;;
49101;SDS011;34913;47.520;19.186;2022-10-31T08:19:18;30.48;;;16.73;;
49101;SDS011;34913;47.520;19.186;2022-10-31T08:21:44;32.08;;;16.40;;
49101;SDS011;34913;47.520;19.186;2022-10-31T08:24:09;31.35;;;16.48;;
49101;SDS011;34913;47.520;19.186;2022-10-31T08:26:35;31.45;;;16.15;;
49101;SDS011;34913;47.520;19.186;2022-10-31T08:29:00;34.47;;;16.38;;
49101;SDS011;34913;47.520;19.186;2022-10-31T08:31:27;31.40;;;15.40;;
49101;SDS011;34913;47.520;19.186;2022-10-31T08:33:52;28.90;;;15.90;;
49101;SDS011;34913;47.520;19.186;2022-10-31T08:36:21;34.10;;;16.77;;
49101;SDS011;34913;47.520;19.186;2022-10-31T08:38:47;38.58;;;18.00;;
49101;SDS011;34913;47.520;19.186;2022-10-31T08:41:12;34.00;;;17.15;;
49101;SDS011;34913;47.520;19.186;2022-10-31T08:43:38;33.33;;;17.08;;
49101;SDS011;34913;47.520;19.186;2022-10-31T08:46:04;32.88;;;16.95;;
49101;SDS011;34913;47.520;19.186;2022-10-31T08:48:29;34.30;;;17.25;;
49101;SDS011;34913;47.520;19.186;2022-10-31T08:50:57;36.65;;;17.83;;
49101;SDS011;34913;47.520;19.186;2022-10-31T08:53:23;42.05;;;18.50;;
49101;SDS011;34913;47.520;19.186;2022-10-31T08:55:49;38.72;;;17.60;;
49101;SDS011;34913;47.520;19.186;2022-10-31T08:58:18;42.15;;;19.10;;
49101;SDS011;34913;47.520;19.186;2022-10-31T09:00:45;41.00;;;18.70;;
49101;SDS011;34913;47.520;19.186;2022-10-31T09:03:16;36.38;;;17.58;;
49101;SDS011;34913;47.520;19.186;2022-10-31T09:05:42;43.08;;;18.48;;
49101;SDS011;34913;47.520;19.186;2022-10-31T09:08:08;38.90;;;18.15;;
49101;SDS011;34913;47.520;19.186;2022-10-31T09:10:34;35.80;;;17.75;;
49101;SDS011;34913;47.520;19.186;2022-10-31T09:13:05;40.83;;;18.10;;
49101;SDS011;34913;47.520;19.186;2022-10-31T09:15:34;35.38;;;17.13;;
49101;SDS011;34913;47.520;19.186;2022-10-31T09:18:01;35.38;;;17.05;;
49101;SDS011;34913;47.520;19.186;2022-10-31T09:20:27;37.55;;;17.77;;
49101;SDS011;34913;47.520;19.186;2022-10-31T09:23:00;39.65;;;18.15;;
49101;SDS011;34913;47.520;19.186;2022-10-31T09:25:28;38.35;;;16.83;;
49101;SDS011;34913;47.520;19.186;2022-10-31T09:27:57;33.95;;;17.85;;
49101;SDS011;34913;47.520;19.186;2022-10-31T09:30:27;39.40;;;18.73;;
49101;SDS011;34913;47.520;19.186;2022-10-31T09:32:57;35.58;;;17.65;;
49101;SDS011;34913;47.520;19.186;2022-10-31T09:35:24;37.35;;;17.92;;
49101;SDS011;34913;47.520;19.186;2022-10-31T09:37:57;34.30;;;17.35;;
49101;SDS011;34913;47.520;19.186;2022-10-31T09:40:24;34.80;;;17.23;;
49101;SDS011;34913;47.520;19.186;2022-10-31T09:51:48;46.03;;;21.58;;
49101;SDS011;34913;47.520;19.186;2022-10-31T09:54:20;50.95;;;25.27;;
49101;SDS011;34913;47.520;19.186;2022-10-31T09:56:52;47.72;;;23.63;;
49101;SDS011;34913;47.520;19.186;2022-10-31T09:59:23;38.20;;;19.77;;
49101;SDS011;34913;47.520;19.186;2022-10-31T10:01:55;38.55;;;18.85;;
49101;SDS011;34913;47.520;19.186;2022-10-31T10:04:32;35.20;;;17.02;;
49101;SDS011;34913;47.520;19.186;2022-10-31T10:10:18;42.58;;;19.15;;
49101;SDS011;34913;47.520;19.186;2022-10-31T10:15:34;32.42;;;15.77;;
49101;SDS011;34913;47.520;19.186;2022-10-31T10:18:20;38.90;;;21.67;;
49101;SDS011;34913;47.520;19.186;2022-10-31T10:21:06;40.25;;;22.08;;
49101;SDS011;34913;47.520;19.186;2022-10-31T10:23:41;34.40;;;18.50;;
49101;SDS011;34913;47.520;19.186;2022-10-31T10:26:21;31.65;;;17.15;;
49101;SDS011;34913;47.520;19.186;2022-10-31T10:29:24;31.60;;;15.88;;
49101;SDS011;34913;47.520;19.186;2022-10-31T10:32:04;30.53;;;15.73;;
49101;SDS011;34913;47.520;19.186;2022-10-31T10:34:40;32.10;;;15.50;;
49101;SDS011;34913;47.520;19.186;2022-10-31T10:37:22;27.77;;;15.35;;
49101;SDS011;34913;47.520;19.186;2022-10-31T10:39:56;25.27;;;14.32;;
49101;SDS011;34913;47.520;19.186;2022-10-31T10:42:32;27.38;;;14.57;;
49101;SDS011;34913;47.520;19.186;2022-10-31T10:45:18;24.77;;;13.95;;
49101;SDS011;34913;47.520;19.186;2022-10-31T10:51:02;27.63;;;14.77;;
49101;SDS011;34913;47.520;19.186;2022-10-31T10:56:34;28.92;;;15.43;;
49101;SDS011;34913;47.520;19.186;2022-10-31T10:59:08;28.60;;;15.73;;
49101;SDS011;34913;47.520;19.186;2022-10-31T11:01:36;33.83;;;17.83;;
49101;SDS011;34913;47.520;19.186;2022-10-31T11:04:07;34.42;;;20.15;;
49101;SDS011;34913;47.520;19.186;2022-10-31T11:06:55;26.52;;;14.55;;
49101;SDS011;34913;47.520;19.186;2022-10-31T11:09:22;28.58;;;16.25;;
49101;SDS011;34913;47.520;19.186;2022-10-31T11:11:47;31.48;;;16.65;;
49101;SDS011;34913;47.520;19.186;2022-10-31T11:14:15;29.00;;;16.85;;
49101;SDS011;34913;47.520;19.186;2022-10-31T11:16:43;30.10;;;15.00;;
49101;SDS011;34913;47.520;19.186;2022-10-31T11:21:39;22.75;;;12.73;;
49101;SDS011;34913;47.520;19.186;2022-10-31T11:26:33;25.52;;;14.25;;
49101;SDS011;34913;47.520;19.186;2022-10-31T11:29:00;29.45;;;16.40;;
49101;SDS011;34913;47.520;19.186;2022-10-31T11:31:28;38.53;;;18.25;;
49101;SDS011;34913;47.520;19.186;2022-10-31T11:34:04;35.85;;;17.45;;
49101;SDS011;34913;47.520;19.186;2022-10-31T11:36:33;46.33;;;23.20;;
49101;SDS011;34913;47.520;19.186;2022-10-31T11:39:03;41.67;;;20.85;;
49101;SDS011;34913;47.520;19.186;2022-10-31T11:41:38;25.15;;;14.70;;
49101;SDS011;34913;47.520;19.186;2022-10-31T11:44:12;22.45;;;13.23;;
49101;SDS011;34913;47.520;19.186;2022-10-31T11:46:40;23.08;;;13.77;;
49101;SDS011;34913;47.520;19.186;2022-10-31T11:49:16;21.65;;;13.15;;
49101;SDS011;34913;47.520;19.186;2022-10-31T11:52:05;24.05;;;12.95;;
49101;SDS011;34913;47.520;19.186;2022-10-31T11:54:44;27.70;;;13.95;;
49101;SDS011;34913;47.520;19.186;2022-10-31T11:57:21;22.23;;;12.93;;
49101;SDS011;34913;47.520;19.186;2022-10-31T12:06:21;25.23;;;13.52;;
49101;SDS011;34913;47.520;19.186;2022-10-31T12:08:51;20.90;;;12.57;;
49101;SDS011;34913;47.520;19.186;2022-10-31T12:16:56;21.38;;;12.18;;
49101;SDS011;34913;47.520;19.186;2022-10-31T12:25:39;19.70;;;12.23;;
49101;SDS011;34913;47.520;19.186;2022-10-31T12:43:54;19.27;;;12.60;;
49101;SDS011;34913;47.520;19.186;2022-10-31T12:52:58;25.33;;;13.82;;
49101;SDS011;34913;47.520;19.186;2022-10-31T12:58:05;25.10;;;13.82;;
49101;SDS011;34913;47.520;19.186;2022-10-31T13:00:38;23.75;;;14.40;;
49101;SDS011;34913;47.520;19.186;2022-10-31T13:03:21;25.65;;;14.13;;
49101;SDS011;34913;47.520;19.186;2022-10-31T13:05:54;23.95;;;14.27;;
49101;SDS011;34913;47.520;19.186;2022-10-31T13:11:08;22.17;;;14.02;;
49101;SDS011;34913;47.520;19.186;2022-10-31T13:13:41;24.23;;;14.73;;
49101;SDS011;34913;47.520;19.186;2022-10-31T13:16:22;22.65;;;13.90;;
49101;SDS011;34913;47.520;19.186;2022-10-31T13:18:57;21.20;;;13.48;;
49101;SDS011;34913;47.520;19.186;2022-10-31T13:21:26;21.03;;;13.30;;
49101;SDS011;34913;47.520;19.186;2022-10-31T13:23:55;21.70;;;13.05;;
49101;SDS011;34913;47.520;19.186;2022-10-31T13:31:58;21.23;;;13.75;;
49101;SDS011;34913;47.520;19.186;2022-10-31T13:37:17;24.27;;;13.98;;
49101;SDS011;34913;47.520;19.186;2022-10-31T13:40:06;20.60;;;13.00;;
49101;SDS011;34913;47.520;19.186;2022-10-31T13:45:23;21.63;;;13.32;;
49101;SDS011;34913;47.520;19.186;2022-10-31T13:47:57;22.30;;;14.25;;
49101;SDS011;34913;47.520;19.186;2022-10-31T13:50:54;22.90;;;13.85;;
49101;SDS011;34913;47.520;19.186;2022-10-31T13:53:38;25.20;;;13.45;;
49101;SDS011;34913;47.520;19.186;2022-10-31T13:58:34;27.35;;;14.38;;
49101;SDS011;34913;47.520;19.186;2022-10-31T14:03:35;25.48;;;14.57;;
49101;SDS011;34913;47.520;19.186;2022-10-31T14:06:02;25.95;;;15.52;;
49101;SDS011;34913;47.520;19.186;2022-10-31T14:08:30;25.13;;;15.52;;
49101;SDS011;34913;47.520;19.186;2022-10-31T14:11:02;27.83;;;15.23;;
49101;SDS011;34913;47.520;19.186;2022-10-31T14:16:21;22.45;;;13.57;;
49101;SDS011;34913;47.520;19.186;2022-10-31T14:21:26;20.63;;;12.38;;
49101;SDS011;34913;47.520;19.186;2022-10-31T14:23:54;21.83;;;12.57;;
49101;SDS011;34913;47.520;19.186;2022-10-31T14:28:47;20.35;;;12.63;;
49101;SDS011;34913;47.520;19.186;2022-10-31T14:31:33;23.25;;;13.32;;
49101;SDS011;34913;47.520;19.186;2022-10-31T14:52:51;20.15;;;12.00;;
49101;SDS011;34913;47.520;19.186;2022-10-31T14:55:19;21.90;;;12.10;;
49101;SDS011;34913;47.520;19.186;2022-10-31T14:58:08;22.42;;;13.40;;
49101;SDS011;34913;47.520;19.186;2022-10-31T15:00:33;21.58;;;12.60;;
49101;SDS011;34913;47.520;19.186;2022-10-31T15:05:26;20.70;;;12.18;;
49101;SDS011;34913;47.520;19.186;2022-10-31T15:07:53;24.02;;;12.80;;
49101;SDS011;34913;47.520;19.186;2022-10-31T15:15:44;27.10;;;15.65;;
49101;SDS011;34913;47.520;19.186;2022-10-31T15:18:17;22.38;;;13.90;;
49101;SDS011;34913;47.520;19.186;2022-10-31T15:20:46;23.42;;;13.60;;
49101;SDS011;34913;47.520;19.186;2022-10-31T15:23:16;26.60;;;14.15;;
49101;SDS011;34913;47.520;19.186;2022-10-31T15:25:46;25.80;;;14.52;;
49101;SDS011;34913;47.520;19.186;2022-10-31T15:28:12;24.15;;;13.05;;
49101;SDS011;34913;47.520;19.186;2022-10-31T15:30:56;21.85;;;13.02;;
49101;SDS011;34913;47.520;19.186;2022-10-31T15:33:25;20.83;;;12.38;;
49101;SDS011;34913;47.520;19.186;2022-10-31T15:35:59;24.25;;;13.93;;
49101;SDS011;34913;47.520;19.186;2022-10-31T15:38:26;24.30;;;13.15;;
49101;SDS011;34913;47.520;19.186;2022-10-31T15:40:57;25.17;;;13.27;;
49101;SDS011;34913;47.520;19.186;2022-10-31T15:43:32;22.85;;;13.85;;
49101;SDS011;34913;47.520;19.186;2022-10-31T15:46:00;21.48;;;12.98;;
49101;SDS011;34913;47.520;19.186;2022-10-31T15:48:27;26.75;;;14.07;;
49101;SDS011;34913;47.520;19.186;2022-10-31T15:50:56;27.10;;;14.40;;
49101;SDS011;34913;47.520;19.186;2022-10-31T15:53:24;26.83;;;15.20;;
49101;SDS011;34913;47.520;19.186;2022-10-31T15:56:06;26.83;;;14.75;;
49101;SDS011;34913;47.520;19.186;2022-10-31T15:58:45;29.52;;;16.13;;
49101;SDS011;34913;47.520;19.186;2022-10-31T16:01:20;29.50;;;15.27;;
49101;SDS011;34913;47.520;19.186;2022-10-31T16:03:56;27.40;;;15.75;;
49101;SDS011;34913;47.520;19.186;2022-10-31T16:06:24;28.35;;;15.57;;
49101;SDS011;34913;47.520;19.186;2022-10-31T16:08:50;30.08;;;16.02;;
49101;SDS011;34913;47.520;19.186;2022-10-31T16:13:54;28.58;;;14.50;;
49101;SDS011;34913;47.520;19.186;2022-10-31T16:16:21;26.40;;;14.48;;
49101;SDS011;34913;47.520;19.186;2022-10-31T16:18:47;30.67;;;14.75;;
49101;SDS011;34913;47.520;19.186;2022-10-31T16:21:14;32.25;;;15.10;;
49101;SDS011;34913;47.520;19.186;2022-10-31T16:23:44;29.30;;;15.30;;
49101;SDS011;34913;47.520;19.186;2022-10-31T16:26:17;31.65;;;16.55;;
49101;SDS011;34913;47.520;19.186;2022-10-31T16:28:50;31.90;;;16.10;;
49101;SDS011;34913;47.520;19.186;2022-10-31T16:31:24;30.15;;;15.00;;
49101;SDS011;34913;47.520;19.186;2022-10-31T16:34:14;33.38;;;15.57;;
49101;SDS011;34913;47.520;19.186;2022-10-31T16:36:45;32.42;;;15.65;;
49101;SDS011;34913;47.520;19.186;2022-10-31T16:39:11;29.23;;;15.23;;
49101;SDS011;34913;47.520;19.186;2022-10-31T16:41:39;35.03;;;15.38;;
49101;SDS011;34913;47.520;19.186;2022-10-31T16:44:12;33.95;;;16.40;;
49101;SDS011;34913;47.520;19.186;2022-10-31T16:46:42;34.63;;;17.10;;
49101;SDS011;34913;47.520;19.186;2022-10-31T16:49:08;36.30;;;18.77;;
49101;SDS011;34913;47.520;19.186;2022-10-31T16:51:34;34.67;;;16.75;;
49101;SDS011;34913;47.520;19.186;2022-10-31T16:53:59;31.90;;;16.00;;
49101;SDS011;34913;47.520;19.186;2022-10-31T16:56:29;34.38;;;16.13;;
49101;SDS011;34913;47.520;19.186;2022-10-31T16:58:58;30.35;;;15.88;;
49101;SDS011;34913;47.520;19.186;2022-10-31T17:01:26;30.05;;;15.95;;
49101;SDS011;34913;47.520;19.186;2022-10-31T17:03:52;36.10;;;16.73;;
49101;SDS011;34913;47.520;19.186;2022-10-31T17:06:17;32.25;;;15.10;;